sensor_id;sensor_type;location;lat;lon;timestamp;P1;durP1;ratioP1;P2;durP2;ratioP2
18818;SDS011;9537;45.594;9.294;2023-06-10T00:00:15;9.77;;;8.32;;
18818;SDS011;9537;45.594;9.294;2023-06-10T00:01:17;9.10;;;8.20;;
18818;SDS011;9537;45.594;9.294;2023-06-10T00:02:18;8.80;;;8.00;;
18818;SDS011;9537;45.594;9.294;2023-06-10T00:03:20;10.55;;;9.45;;
18818;SDS011;9537;45.594;9.294;2023-06-10T00:04:23;9.82;;;8.73;;
18818;SDS011;9537;45.594;9.294;2023-06-10T00:05:25;9.38;;;8.07;;
18818;SDS011;9537;45.594;9.294;2023-06-10T00:06:30;10.77;;;9.38;;
18818;SDS011;9537;45.594;9.294;2023-06-10T00:07:35;10.38;;;8.60;;
18818;SDS011;9537;45.594;9.294;2023-06-10T00:08:38;9.70;;;7.90;;
18818;SDS011;9537;45.594;9.294;2023-06-10T00:09:40;9.70;;;8.25;;
18818;SDS011;9537;45.594;9.294;2023-06-10T00:10:40;9.15;;;8.00;;
18818;SDS011;9537;45.594;9.294;2023-06-10T00:11:42;10.07;;;7.80;;
18818;SDS011;9537;45.594;9.294;2023-06-10T00:12:45;8.73;;;7.82;;
18818;SDS011;9537;45.594;9.294;2023-06-10T00:13:46;7.53;;;6.75;;
18818;SDS011;9537;45.594;9.294;2023-06-10T00:14:47;8.60;;;7.70;;
18818;SDS011;9537;45.594;9.294;2023-06-10T00:15:50;8.15;;;7.35;;
18818;SDS011;9537;45.594;9.294;2023-06-10T00:16:50;9.48;;;7.28;;
18818;SDS011;9537;45.594;9.294;2023-06-10T00:17:52;9.20;;;7.13;;
18818;SDS011;9537;45.594;9.294;2023-06-10T00:18:55;7.97;;;7.18;;
18818;SDS011;9537;45.594;9.294;2023-06-10T00:20:00;7.75;;;6.85;;
18818;SDS011;9537;45.594;9.294;2023-06-10T00:21:05;9.07;;;7.03;;
18818;SDS011;9537;45.594;9.294;2023-06-10T00:22:06;8.55;;;7.40;;
18818;SDS011;9537;45.594;9.294;2023-06-10T00:23:07;7.53;;;6.78;;
18818;SDS011;9537;45.594;9.294;2023-06-10T00:24:09;7.45;;;6.68;;
18818;SDS011;9537;45.594;9.294;2023-06-10T00:25:12;7.80;;;6.53;;
18818;SDS011;9537;45.594;9.294;2023-06-10T00:26:13;7.38;;;6.32;;
18818;SDS011;9537;45.594;9.294;2023-06-10T00:27:14;8.40;;;6.88;;
18818;SDS011;9537;45.594;9.294;2023-06-10T00:28:17;8.43;;;6.68;;
18818;SDS011;9537;45.594;9.294;2023-06-10T00:29:18;12.25;;;6.63;;
18818;SDS011;9537;45.594;9.294;2023-06-10T00:30:20;6.50;;;5.55;;
18818;SDS011;9537;45.594;9.294;2023-06-10T00:31:21;5.82;;;5.22;;
18818;SDS011;9537;45.594;9.294;2023-06-10T00:32:23;5.72;;;5.13;;
18818;SDS011;9537;45.594;9.294;2023-06-10T00:33:24;8.13;;;5.20;;
18818;SDS011;9537;45.594;9.294;2023-06-10T00:34:26;6.97;;;5.35;;
18818;SDS011;9537;45.594;9.294;2023-06-10T00:35:27;5.45;;;4.82;;
18818;SDS011;9537;45.594;9.294;2023-06-10T00:36:28;4.97;;;4.43;;
18818;SDS011;9537;45.594;9.294;2023-06-10T00:37:30;6.53;;;4.95;;
18818;SDS011;9537;45.594;9.294;2023-06-10T00:38:32;6.30;;;5.10;;
18818;SDS011;9537;45.594;9.294;2023-06-10T00:39:33;4.50;;;4.10;;
18818;SDS011;9537;45.594;9.294;2023-06-10T00:40:38;4.85;;;4.05;;
18818;SDS011;9537;45.594;9.294;2023-06-10T00:41:42;5.63;;;4.18;;
18818;SDS011;9537;45.594;9.294;2023-06-10T00:42:43;5.50;;;3.78;;
18818;SDS011;9537;45.594;9.294;2023-06-10T00:43:46;4.72;;;3.92;;
18818;SDS011;9537;45.594;9.294;2023-06-10T00:44:47;5.25;;;3.53;;
18818;SDS011;9537;45.594;9.294;2023-06-10T00:45:48;5.15;;;3.47;;
18818;SDS011;9537;45.594;9.294;2023-06-10T00:46:50;4.13;;;3.72;;
18818;SDS011;9537;45.594;9.294;2023-06-10T00:47:53;4.28;;;3.85;;
18818;SDS011;9537;45.594;9.294;2023-06-10T00:48:55;3.83;;;3.45;;
18818;SDS011;9537;45.594;9.294;2023-06-10T00:49:56;6.43;;;3.58;;
18818;SDS011;9537;45.594;9.294;2023-06-10T00:50:58;4.80;;;3.45;;
18818;SDS011;9537;45.594;9.294;2023-06-10T00:52:00;3.80;;;3.28;;
18818;SDS011;9537;45.594;9.294;2023-06-10T00:53:05;4.13;;;3.58;;
18818;SDS011;9537;45.594;9.294;2023-06-10T00:54:06;3.90;;;3.50;;
18818;SDS011;9537;45.594;9.294;2023-06-10T00:55:08;4.30;;;3.42;;
18818;SDS011;9537;45.594;9.294;2023-06-10T00:56:09;6.03;;;3.50;;
18818;SDS011;9537;45.594;9.294;2023-06-10T00:57:10;5.38;;;3.22;;
18818;SDS011;9537;45.594;9.294;2023-06-10T00:58:14;4.43;;;3.45;;
18818;SDS011;9537;45.594;9.294;2023-06-10T00:59:18;4.22;;;3.53;;
18818;SDS011;9537;45.594;9.294;2023-06-10T01:00:19;5.43;;;3.67;;
18818;SDS011;9537;45.594;9.294;2023-06-10T01:01:23;5.22;;;3.30;;
18818;SDS011;9537;45.594;9.294;2023-06-10T01:02:25;5.97;;;3.75;;
18818;SDS011;9537;45.594;9.294;2023-06-10T01:03:27;6.10;;;3.35;;
18818;SDS011;9537;45.594;9.294;2023-06-10T01:04:28;4.40;;;3.33;;
18818;SDS011;9537;45.594;9.294;2023-06-10T01:05:30;5.13;;;3.35;;
18818;SDS011;9537;45.594;9.294;2023-06-10T01:06:33;4.95;;;3.22;;
18818;SDS011;9537;45.594;9.294;2023-06-10T01:07:48;3.33;;;2.95;;
18818;SDS011;9537;45.594;9.294;2023-06-10T01:08:57;4.72;;;3.13;;
18818;SDS011;9537;45.594;9.294;2023-06-10T01:10:09;5.32;;;2.88;;
18818;SDS011;9537;45.594;9.294;2023-06-10T01:11:17;4.10;;;3.03;;
18818;SDS011;9537;45.594;9.294;2023-06-10T01:12:25;6.55;;;3.58;;
18818;SDS011;9537;45.594;9.294;2023-06-10T01:13:31;4.72;;;2.90;;
18818;SDS011;9537;45.594;9.294;2023-06-10T01:14:34;3.97;;;2.78;;
18818;SDS011;9537;45.594;9.294;2023-06-10T01:15:35;3.55;;;2.97;;
18818;SDS011;9537;45.594;9.294;2023-06-10T01:16:38;6.35;;;2.70;;
18818;SDS011;9537;45.594;9.294;2023-06-10T01:17:53;4.35;;;3.30;;
18818;SDS011;9537;45.594;9.294;2023-06-10T01:18:55;3.63;;;2.85;;
18818;SDS011;9537;45.594;9.294;2023-06-10T01:19:58;5.15;;;3.15;;
18818;SDS011;9537;45.594;9.294;2023-06-10T01:20:59;5.75;;;3.35;;
18818;SDS011;9537;45.594;9.294;2023-06-10T01:22:02;3.17;;;2.80;;
18818;SDS011;9537;45.594;9.294;2023-06-10T01:23:03;4.05;;;3.00;;
18818;SDS011;9537;45.594;9.294;2023-06-10T01:24:05;4.07;;;2.97;;
18818;SDS011;9537;45.594;9.294;2023-06-10T01:25:08;5.10;;;3.03;;
18818;SDS011;9537;45.594;9.294;2023-06-10T01:26:11;4.05;;;2.78;;
18818;SDS011;9537;45.594;9.294;2023-06-10T01:27:14;4.07;;;2.75;;
18818;SDS011;9537;45.594;9.294;2023-06-10T01:28:24;7.75;;;2.92;;
18818;SDS011;9537;45.594;9.294;2023-06-10T01:29:31;4.15;;;2.83;;
18818;SDS011;9537;45.594;9.294;2023-06-10T01:30:39;4.22;;;2.97;;
18818;SDS011;9537;45.594;9.294;2023-06-10T01:31:47;5.07;;;3.03;;
18818;SDS011;9537;45.594;9.294;2023-06-10T01:32:53;4.60;;;3.38;;
18818;SDS011;9537;45.594;9.294;2023-06-10T01:33:54;5.03;;;2.83;;
18818;SDS011;9537;45.594;9.294;2023-06-10T01:34:57;4.70;;;2.90;;
18818;SDS011;9537;45.594;9.294;2023-06-10T01:35:59;3.95;;;3.15;;
18818;SDS011;9537;45.594;9.294;2023-06-10T01:37:04;3.75;;;2.83;;
18818;SDS011;9537;45.594;9.294;2023-06-10T01:38:06;5.07;;;2.85;;
18818;SDS011;9537;45.594;9.294;2023-06-10T01:39:08;4.35;;;2.80;;
18818;SDS011;9537;45.594;9.294;2023-06-10T01:40:11;4.18;;;2.80;;
18818;SDS011;9537;45.594;9.294;2023-06-10T01:41:15;3.00;;;2.70;;
18818;SDS011;9537;45.594;9.294;2023-06-10T01:42:17;4.57;;;3.05;;
18818;SDS011;9537;45.594;9.294;2023-06-10T01:43:19;3.90;;;3.40;;
18818;SDS011;9537;45.594;9.294;2023-06-10T01:44:20;3.42;;;3.13;;
18818;SDS011;9537;45.594;9.294;2023-06-10T01:45:24;4.03;;;3.50;;
18818;SDS011;9537;45.594;9.294;2023-06-10T01:46:24;4.05;;;3.03;;
18818;SDS011;9537;45.594;9.294;2023-06-10T01:47:26;4.20;;;3.33;;
18818;SDS011;9537;45.594;9.294;2023-06-10T01:48:27;4.47;;;3.00;;
18818;SDS011;9537;45.594;9.294;2023-06-10T01:49:28;4.68;;;3.08;;
18818;SDS011;9537;45.594;9.294;2023-06-10T01:50:29;4.28;;;2.90;;
18818;SDS011;9537;45.594;9.294;2023-06-10T01:51:31;4.43;;;2.92;;
18818;SDS011;9537;45.594;9.294;2023-06-10T01:52:33;5.70;;;3.38;;
18818;SDS011;9537;45.594;9.294;2023-06-10T01:53:35;4.03;;;3.10;;
18818;SDS011;9537;45.594;9.294;2023-06-10T01:54:36;4.22;;;3.25;;
18818;SDS011;9537;45.594;9.294;2023-06-10T01:55:37;5.30;;;3.33;;
18818;SDS011;9537;45.594;9.294;2023-06-10T01:56:38;3.58;;;3.03;;
18818;SDS011;9537;45.594;9.294;2023-06-10T01:57:40;4.93;;;3.58;;
18818;SDS011;9537;45.594;9.294;2023-06-10T01:58:40;5.40;;;3.60;;
18818;SDS011;9537;45.594;9.294;2023-06-10T01:59:42;3.13;;;2.83;;
18818;SDS011;9537;45.594;9.294;2023-06-10T02:00:44;5.25;;;3.55;;
18818;SDS011;9537;45.594;9.294;2023-06-10T02:01:46;4.78;;;3.15;;
18818;SDS011;9537;45.594;9.294;2023-06-10T02:02:47;4.80;;;3.17;;
18818;SDS011;9537;45.594;9.294;2023-06-10T02:03:48;4.60;;;3.38;;
18818;SDS011;9537;45.594;9.294;2023-06-10T02:04:49;4.88;;;3.38;;
18818;SDS011;9537;45.594;9.294;2023-06-10T02:05:51;4.28;;;3.20;;
18818;SDS011;9537;45.594;9.294;2023-06-10T02:06:52;4.10;;;3.10;;
18818;SDS011;9537;45.594;9.294;2023-06-10T02:07:55;4.13;;;3.30;;
18818;SDS011;9537;45.594;9.294;2023-06-10T02:08:55;4.90;;;3.00;;
18818;SDS011;9537;45.594;9.294;2023-06-10T02:09:57;3.85;;;3.25;;
18818;SDS011;9537;45.594;9.294;2023-06-10T02:10:58;4.38;;;2.95;;
18818;SDS011;9537;45.594;9.294;2023-06-10T02:12:00;3.97;;;2.92;;
18818;SDS011;9537;45.594;9.294;2023-06-10T02:13:01;5.18;;;3.38;;
18818;SDS011;9537;45.594;9.294;2023-06-10T02:14:02;3.20;;;2.90;;
18818;SDS011;9537;45.594;9.294;2023-06-10T02:15:04;3.78;;;3.45;;
18818;SDS011;9537;45.594;9.294;2023-06-10T02:16:05;4.95;;;3.13;;
18818;SDS011;9537;45.594;9.294;2023-06-10T02:17:07;3.67;;;3.20;;
18818;SDS011;9537;45.594;9.294;2023-06-10T02:18:12;6.13;;;3.15;;
18818;SDS011;9537;45.594;9.294;2023-06-10T02:19:14;4.55;;;3.00;;
18818;SDS011;9537;45.594;9.294;2023-06-10T02:20:15;4.75;;;3.10;;
18818;SDS011;9537;45.594;9.294;2023-06-10T02:21:16;4.90;;;2.97;;
18818;SDS011;9537;45.594;9.294;2023-06-10T02:22:17;4.10;;;3.13;;
18818;SDS011;9537;45.594;9.294;2023-06-10T02:23:22;5.70;;;3.53;;
18818;SDS011;9537;45.594;9.294;2023-06-10T02:24:22;4.57;;;3.40;;
18818;SDS011;9537;45.594;9.294;2023-06-10T02:25:27;4.50;;;3.47;;
18818;SDS011;9537;45.594;9.294;2023-06-10T02:26:28;3.72;;;2.92;;
18818;SDS011;9537;45.594;9.294;2023-06-10T02:27:30;5.45;;;3.13;;
18818;SDS011;9537;45.594;9.294;2023-06-10T02:28:31;3.45;;;3.00;;
18818;SDS011;9537;45.594;9.294;2023-06-10T02:29:33;5.05;;;3.53;;
18818;SDS011;9537;45.594;9.294;2023-06-10T02:30:34;5.97;;;2.90;;
18818;SDS011;9537;45.594;9.294;2023-06-10T02:31:37;5.72;;;3.05;;
18818;SDS011;9537;45.594;9.294;2023-06-10T02:32:37;6.88;;;3.15;;
18818;SDS011;9537;45.594;9.294;2023-06-10T02:33:39;4.18;;;3.20;;
18818;SDS011;9537;45.594;9.294;2023-06-10T02:34:40;5.07;;;3.15;;
18818;SDS011;9537;45.594;9.294;2023-06-10T02:35:42;4.22;;;2.90;;
18818;SDS011;9537;45.594;9.294;2023-06-10T02:36:43;3.97;;;3.13;;
18818;SDS011;9537;45.594;9.294;2023-06-10T02:37:45;5.13;;;3.42;;
18818;SDS011;9537;45.594;9.294;2023-06-10T02:38:47;4.65;;;3.33;;
18818;SDS011;9537;45.594;9.294;2023-06-10T02:39:49;5.03;;;3.10;;
18818;SDS011;9537;45.594;9.294;2023-06-10T02:40:50;5.03;;;2.92;;
18818;SDS011;9537;45.594;9.294;2023-06-10T02:41:51;4.53;;;3.05;;
18818;SDS011;9537;45.594;9.294;2023-06-10T02:42:52;4.75;;;3.40;;
18818;SDS011;9537;45.594;9.294;2023-06-10T02:43:54;6.95;;;3.53;;
18818;SDS011;9537;45.594;9.294;2023-06-10T02:44:54;5.05;;;3.20;;
18818;SDS011;9537;45.594;9.294;2023-06-10T02:45:56;6.38;;;3.60;;
18818;SDS011;9537;45.594;9.294;2023-06-10T02:46:57;5.20;;;3.80;;
18818;SDS011;9537;45.594;9.294;2023-06-10T02:47:59;7.00;;;3.92;;
18818;SDS011;9537;45.594;9.294;2023-06-10T02:48:59;7.47;;;3.67;;
18818;SDS011;9537;45.594;9.294;2023-06-10T02:50:02;4.30;;;3.40;;
18818;SDS011;9537;45.594;9.294;2023-06-10T02:51:05;4.75;;;3.55;;
18818;SDS011;9537;45.594;9.294;2023-06-10T02:52:06;6.80;;;3.55;;
18818;SDS011;9537;45.594;9.294;2023-06-10T02:53:08;4.32;;;3.60;;
18818;SDS011;9537;45.594;9.294;2023-06-10T02:54:11;5.40;;;3.90;;
18818;SDS011;9537;45.594;9.294;2023-06-10T02:55:12;4.63;;;3.85;;
18818;SDS011;9537;45.594;9.294;2023-06-10T02:56:15;7.00;;;3.40;;
18818;SDS011;9537;45.594;9.294;2023-06-10T02:57:16;6.03;;;3.50;;
18818;SDS011;9537;45.594;9.294;2023-06-10T02:58:18;4.03;;;3.60;;
18818;SDS011;9537;45.594;9.294;2023-06-10T02:59:19;7.30;;;3.97;;
18818;SDS011;9537;45.594;9.294;2023-06-10T03:00:21;4.97;;;3.70;;
18818;SDS011;9537;45.594;9.294;2023-06-10T03:01:22;4.95;;;3.47;;
18818;SDS011;9537;45.594;9.294;2023-06-10T03:02:24;5.20;;;3.28;;
18818;SDS011;9537;45.594;9.294;2023-06-10T03:03:28;6.68;;;3.60;;
18818;SDS011;9537;45.594;9.294;2023-06-10T03:04:30;7.68;;;3.88;;
18818;SDS011;9537;45.594;9.294;2023-06-10T03:05:32;6.43;;;3.58;;
18818;SDS011;9537;45.594;9.294;2023-06-10T03:06:34;4.97;;;3.53;;
18818;SDS011;9537;45.594;9.294;2023-06-10T03:07:35;5.07;;;3.60;;
18818;SDS011;9537;45.594;9.294;2023-06-10T03:08:38;6.63;;;4.00;;
18818;SDS011;9537;45.594;9.294;2023-06-10T03:09:40;5.10;;;3.58;;
18818;SDS011;9537;45.594;9.294;2023-06-10T03:10:42;7.18;;;3.53;;
18818;SDS011;9537;45.594;9.294;2023-06-10T03:11:42;4.60;;;3.38;;
18818;SDS011;9537;45.594;9.294;2023-06-10T03:12:45;5.07;;;3.53;;
18818;SDS011;9537;45.594;9.294;2023-06-10T03:13:45;4.40;;;3.65;;
18818;SDS011;9537;45.594;9.294;2023-06-10T03:14:47;5.05;;;3.88;;
18818;SDS011;9537;45.594;9.294;2023-06-10T03:15:48;4.22;;;3.30;;
18818;SDS011;9537;45.594;9.294;2023-06-10T03:16:50;5.30;;;4.07;;
18818;SDS011;9537;45.594;9.294;2023-06-10T03:17:50;8.10;;;3.97;;
18818;SDS011;9537;45.594;9.294;2023-06-10T03:18:52;5.05;;;3.97;;
18818;SDS011;9537;45.594;9.294;2023-06-10T03:19:56;4.90;;;3.65;;
18818;SDS011;9537;45.594;9.294;2023-06-10T03:20:58;6.53;;;3.80;;
18818;SDS011;9537;45.594;9.294;2023-06-10T03:22:06;3.95;;;3.53;;
18818;SDS011;9537;45.594;9.294;2023-06-10T03:23:09;4.30;;;3.80;;
18818;SDS011;9537;45.594;9.294;2023-06-10T03:24:10;5.15;;;4.00;;
18818;SDS011;9537;45.594;9.294;2023-06-10T03:25:14;5.35;;;3.58;;
18818;SDS011;9537;45.594;9.294;2023-06-10T03:26:15;5.30;;;3.95;;
18818;SDS011;9537;45.594;9.294;2023-06-10T03:27:16;6.32;;;4.20;;
18818;SDS011;9537;45.594;9.294;2023-06-10T03:28:17;5.95;;;3.60;;
18818;SDS011;9537;45.594;9.294;2023-06-10T03:29:19;6.63;;;4.20;;
18818;SDS011;9537;45.594;9.294;2023-06-10T03:30:20;4.80;;;3.85;;
18818;SDS011;9537;45.594;9.294;2023-06-10T03:31:22;9.00;;;4.30;;
18818;SDS011;9537;45.594;9.294;2023-06-10T03:32:24;9.32;;;4.50;;
18818;SDS011;9537;45.594;9.294;2023-06-10T03:33:26;6.85;;;4.90;;
18818;SDS011;9537;45.594;9.294;2023-06-10T03:34:27;7.10;;;4.18;;
18818;SDS011;9537;45.594;9.294;2023-06-10T03:35:30;5.75;;;3.97;;
18818;SDS011;9537;45.594;9.294;2023-06-10T03:36:31;6.53;;;3.90;;
18818;SDS011;9537;45.594;9.294;2023-06-10T03:37:33;5.70;;;4.25;;
18818;SDS011;9537;45.594;9.294;2023-06-10T03:38:34;5.03;;;3.45;;
18818;SDS011;9537;45.594;9.294;2023-06-10T03:39:36;5.20;;;3.80;;
18818;SDS011;9537;45.594;9.294;2023-06-10T03:40:38;4.32;;;3.58;;
18818;SDS011;9537;45.594;9.294;2023-06-10T03:41:40;6.35;;;4.00;;
18818;SDS011;9537;45.594;9.294;2023-06-10T03:42:41;5.70;;;3.75;;
18818;SDS011;9537;45.594;9.294;2023-06-10T03:43:44;6.18;;;3.90;;
18818;SDS011;9537;45.594;9.294;2023-06-10T03:44:44;5.20;;;3.70;;
18818;SDS011;9537;45.594;9.294;2023-06-10T03:45:46;7.78;;;3.78;;
18818;SDS011;9537;45.594;9.294;2023-06-10T03:46:49;4.80;;;3.63;;
18818;SDS011;9537;45.594;9.294;2023-06-10T03:47:52;4.65;;;3.72;;
18818;SDS011;9537;45.594;9.294;2023-06-10T03:48:52;7.50;;;4.00;;
18818;SDS011;9537;45.594;9.294;2023-06-10T03:49:54;4.88;;;4.03;;
18818;SDS011;9537;45.594;9.294;2023-06-10T03:50:56;6.43;;;3.65;;
18818;SDS011;9537;45.594;9.294;2023-06-10T03:51:58;7.35;;;4.03;;
18818;SDS011;9537;45.594;9.294;2023-06-10T03:52:59;4.22;;;3.67;;
18818;SDS011;9537;45.594;9.294;2023-06-10T03:54:01;7.13;;;4.05;;
18818;SDS011;9537;45.594;9.294;2023-06-10T03:55:02;6.30;;;3.80;;
18818;SDS011;9537;45.594;9.294;2023-06-10T03:56:07;6.32;;;4.13;;
18818;SDS011;9537;45.594;9.294;2023-06-10T03:57:08;4.63;;;3.88;;
18818;SDS011;9537;45.594;9.294;2023-06-10T03:58:10;9.02;;;4.25;;
18818;SDS011;9537;45.594;9.294;2023-06-10T03:59:13;4.38;;;3.90;;
18818;SDS011;9537;45.594;9.294;2023-06-10T04:00:15;5.13;;;3.42;;
18818;SDS011;9537;45.594;9.294;2023-06-10T04:01:17;6.63;;;4.40;;
18818;SDS011;9537;45.594;9.294;2023-06-10T04:02:21;7.55;;;4.22;;
18818;SDS011;9537;45.594;9.294;2023-06-10T04:03:22;4.00;;;3.50;;
18818;SDS011;9537;45.594;9.294;2023-06-10T04:04:24;4.72;;;4.22;;
18818;SDS011;9537;45.594;9.294;2023-06-10T04:05:25;4.43;;;3.70;;
18818;SDS011;9537;45.594;9.294;2023-06-10T04:06:28;5.63;;;3.58;;
18818;SDS011;9537;45.594;9.294;2023-06-10T04:07:29;6.78;;;4.18;;
18818;SDS011;9537;45.594;9.294;2023-06-10T04:08:32;5.80;;;3.72;;
18818;SDS011;9537;45.594;9.294;2023-06-10T04:09:33;7.95;;;3.88;;
18818;SDS011;9537;45.594;9.294;2023-06-10T04:10:35;6.07;;;4.05;;
18818;SDS011;9537;45.594;9.294;2023-06-10T04:11:37;4.60;;;3.75;;
18818;SDS011;9537;45.594;9.294;2023-06-10T04:12:40;6.97;;;3.92;;
18818;SDS011;9537;45.594;9.294;2023-06-10T04:13:42;5.60;;;4.35;;
18818;SDS011;9537;45.594;9.294;2023-06-10T04:14:43;5.82;;;3.95;;
18818;SDS011;9537;45.594;9.294;2023-06-10T04:15:44;5.78;;;3.70;;
18818;SDS011;9537;45.594;9.294;2023-06-10T04:16:46;7.20;;;4.15;;
18818;SDS011;9537;45.594;9.294;2023-06-10T04:17:46;5.35;;;4.20;;
18818;SDS011;9537;45.594;9.294;2023-06-10T04:18:49;5.43;;;4.35;;
18818;SDS011;9537;45.594;9.294;2023-06-10T04:19:50;4.65;;;3.58;;
18818;SDS011;9537;45.594;9.294;2023-06-10T04:20:52;4.63;;;3.60;;
18818;SDS011;9537;45.594;9.294;2023-06-10T04:21:52;5.47;;;4.30;;
18818;SDS011;9537;45.594;9.294;2023-06-10T04:22:54;5.25;;;3.88;;
18818;SDS011;9537;45.594;9.294;2023-06-10T04:23:55;9.30;;;4.35;;
18818;SDS011;9537;45.594;9.294;2023-06-10T04:24:57;5.78;;;3.70;;
18818;SDS011;9537;45.594;9.294;2023-06-10T04:25:59;3.50;;;3.20;;
18818;SDS011;9537;45.594;9.294;2023-06-10T04:27:03;4.53;;;3.80;;
18818;SDS011;9537;45.594;9.294;2023-06-10T04:28:05;6.00;;;3.97;;
18818;SDS011;9537;45.594;9.294;2023-06-10T04:29:06;5.78;;;3.70;;
18818;SDS011;9537;45.594;9.294;2023-06-10T04:30:08;8.35;;;4.75;;
18818;SDS011;9537;45.594;9.294;2023-06-10T04:31:10;6.38;;;4.10;;
18818;SDS011;9537;45.594;9.294;2023-06-10T04:32:11;4.25;;;3.45;;
18818;SDS011;9537;45.594;9.294;2023-06-10T04:33:13;4.75;;;3.65;;
18818;SDS011;9537;45.594;9.294;2023-06-10T04:34:14;5.55;;;3.47;;
18818;SDS011;9537;45.594;9.294;2023-06-10T04:35:16;6.63;;;3.75;;
18818;SDS011;9537;45.594;9.294;2023-06-10T04:36:17;5.55;;;3.83;;
18818;SDS011;9537;45.594;9.294;2023-06-10T04:37:18;4.68;;;3.88;;
18818;SDS011;9537;45.594;9.294;2023-06-10T04:38:20;6.40;;;3.92;;
18818;SDS011;9537;45.594;9.294;2023-06-10T04:39:22;4.57;;;3.92;;
18818;SDS011;9537;45.594;9.294;2023-06-10T04:40:22;5.07;;;4.10;;
18818;SDS011;9537;45.594;9.294;2023-06-10T04:41:24;6.65;;;4.68;;
18818;SDS011;9537;45.594;9.294;2023-06-10T04:42:28;6.57;;;4.13;;
18818;SDS011;9537;45.594;9.294;2023-06-10T04:43:30;7.80;;;3.80;;
18818;SDS011;9537;45.594;9.294;2023-06-10T04:44:31;6.03;;;3.92;;
18818;SDS011;9537;45.594;9.294;2023-06-10T04:45:32;4.50;;;3.75;;
18818;SDS011;9537;45.594;9.294;2023-06-10T04:46:33;6.13;;;4.10;;
18818;SDS011;9537;45.594;9.294;2023-06-10T04:47:35;6.05;;;4.18;;
18818;SDS011;9537;45.594;9.294;2023-06-10T04:48:36;6.47;;;4.30;;
18818;SDS011;9537;45.594;9.294;2023-06-10T04:49:38;7.65;;;3.70;;
18818;SDS011;9537;45.594;9.294;2023-06-10T04:50:38;4.28;;;3.78;;
18818;SDS011;9537;45.594;9.294;2023-06-10T04:51:40;7.88;;;4.28;;
18818;SDS011;9537;45.594;9.294;2023-06-10T04:52:41;5.07;;;4.05;;
18818;SDS011;9537;45.594;9.294;2023-06-10T04:53:44;5.65;;;4.15;;
18818;SDS011;9537;45.594;9.294;2023-06-10T04:54:45;6.68;;;4.22;;
18818;SDS011;9537;45.594;9.294;2023-06-10T04:55:48;5.20;;;4.07;;
18818;SDS011;9537;45.594;9.294;2023-06-10T04:56:49;5.30;;;3.78;;
18818;SDS011;9537;45.594;9.294;2023-06-10T04:57:52;7.20;;;4.47;;
18818;SDS011;9537;45.594;9.294;2023-06-10T04:58:53;7.38;;;4.05;;
18818;SDS011;9537;45.594;9.294;2023-06-10T04:59:55;5.25;;;3.95;;
18818;SDS011;9537;45.594;9.294;2023-06-10T05:00:55;6.70;;;4.13;;
18818;SDS011;9537;45.594;9.294;2023-06-10T05:02:00;8.05;;;4.22;;
18818;SDS011;9537;45.594;9.294;2023-06-10T05:03:00;4.35;;;3.95;;
18818;SDS011;9537;45.594;9.294;2023-06-10T05:04:02;7.30;;;4.38;;
18818;SDS011;9537;45.594;9.294;2023-06-10T05:05:04;5.75;;;3.97;;
18818;SDS011;9537;45.594;9.294;2023-06-10T05:06:06;6.28;;;4.05;;
18818;SDS011;9537;45.594;9.294;2023-06-10T05:07:07;6.65;;;4.30;;
18818;SDS011;9537;45.594;9.294;2023-06-10T05:08:09;4.68;;;4.10;;
18818;SDS011;9537;45.594;9.294;2023-06-10T05:09:10;5.22;;;4.00;;
18818;SDS011;9537;45.594;9.294;2023-06-10T05:10:11;4.97;;;4.47;;
18818;SDS011;9537;45.594;9.294;2023-06-10T05:11:12;7.10;;;4.20;;
18818;SDS011;9537;45.594;9.294;2023-06-10T05:12:14;7.85;;;4.35;;
18818;SDS011;9537;45.594;9.294;2023-06-10T05:13:16;4.97;;;3.80;;
18818;SDS011;9537;45.594;9.294;2023-06-10T05:14:18;5.13;;;4.13;;
18818;SDS011;9537;45.594;9.294;2023-06-10T05:15:20;6.65;;;3.85;;
18818;SDS011;9537;45.594;9.294;2023-06-10T05:16:23;4.20;;;3.47;;
18818;SDS011;9537;45.594;9.294;2023-06-10T05:17:23;5.70;;;3.78;;
18818;SDS011;9537;45.594;9.294;2023-06-10T05:18:25;4.32;;;3.90;;
18818;SDS011;9537;45.594;9.294;2023-06-10T05:19:26;4.25;;;3.50;;
18818;SDS011;9537;45.594;9.294;2023-06-10T05:20:28;4.68;;;3.65;;
18818;SDS011;9537;45.594;9.294;2023-06-10T05:21:29;6.05;;;3.70;;
18818;SDS011;9537;45.594;9.294;2023-06-10T05:22:31;5.35;;;3.65;;
18818;SDS011;9537;45.594;9.294;2023-06-10T05:23:32;4.75;;;3.20;;
18818;SDS011;9537;45.594;9.294;2023-06-10T05:24:33;3.95;;;3.22;;
18818;SDS011;9537;45.594;9.294;2023-06-10T05:25:34;6.00;;;3.72;;
18818;SDS011;9537;45.594;9.294;2023-06-10T05:26:36;5.75;;;3.47;;
18818;SDS011;9537;45.594;9.294;2023-06-10T05:27:37;4.63;;;3.42;;
18818;SDS011;9537;45.594;9.294;2023-06-10T05:28:42;5.45;;;3.55;;
18818;SDS011;9537;45.594;9.294;2023-06-10T05:29:43;6.13;;;3.22;;
18818;SDS011;9537;45.594;9.294;2023-06-10T05:30:45;5.22;;;3.70;;
18818;SDS011;9537;45.594;9.294;2023-06-10T05:31:46;5.20;;;3.63;;
18818;SDS011;9537;45.594;9.294;2023-06-10T05:32:48;6.43;;;3.85;;
18818;SDS011;9537;45.594;9.294;2023-06-10T05:33:48;7.70;;;3.78;;
18818;SDS011;9537;45.594;9.294;2023-06-10T05:34:50;5.40;;;3.40;;
18818;SDS011;9537;45.594;9.294;2023-06-10T05:35:51;4.53;;;3.45;;
18818;SDS011;9537;45.594;9.294;2023-06-10T05:36:52;6.45;;;3.58;;
18818;SDS011;9537;45.594;9.294;2023-06-10T05:37:53;4.00;;;3.20;;
18818;SDS011;9537;45.594;9.294;2023-06-10T05:38:55;6.75;;;3.25;;
18818;SDS011;9537;45.594;9.294;2023-06-10T05:39:55;4.63;;;3.40;;
18818;SDS011;9537;45.594;9.294;2023-06-10T05:40:57;5.35;;;3.70;;
18818;SDS011;9537;45.594;9.294;2023-06-10T05:41:59;5.53;;;3.00;;
18818;SDS011;9537;45.594;9.294;2023-06-10T05:43:02;5.03;;;3.50;;
18818;SDS011;9537;45.594;9.294;2023-06-10T05:44:04;5.85;;;3.90;;
18818;SDS011;9537;45.594;9.294;2023-06-10T05:45:06;5.15;;;3.30;;
18818;SDS011;9537;45.594;9.294;2023-06-10T05:46:08;6.63;;;4.05;;
18818;SDS011;9537;45.594;9.294;2023-06-10T05:47:10;6.15;;;3.72;;
18818;SDS011;9537;45.594;9.294;2023-06-10T05:48:10;5.40;;;3.80;;
18818;SDS011;9537;45.594;9.294;2023-06-10T05:49:12;6.25;;;3.92;;
18818;SDS011;9537;45.594;9.294;2023-06-10T05:50:13;4.78;;;3.72;;
18818;SDS011;9537;45.594;9.294;2023-06-10T05:51:15;4.55;;;3.97;;
18818;SDS011;9537;45.594;9.294;2023-06-10T05:52:15;5.32;;;3.47;;
18818;SDS011;9537;45.594;9.294;2023-06-10T05:53:17;6.00;;;3.40;;
18818;SDS011;9537;45.594;9.294;2023-06-10T05:54:18;6.57;;;2.92;;
18818;SDS011;9537;45.594;9.294;2023-06-10T05:55:19;6.65;;;3.80;;
18818;SDS011;9537;45.594;9.294;2023-06-10T05:56:20;4.78;;;3.28;;
18818;SDS011;9537;45.594;9.294;2023-06-10T05:57:22;3.42;;;2.92;;
18818;SDS011;9537;45.594;9.294;2023-06-10T05:58:23;9.00;;;3.97;;
18818;SDS011;9537;45.594;9.294;2023-06-10T05:59:27;5.53;;;3.42;;
18818;SDS011;9537;45.594;9.294;2023-06-10T06:00:27;5.78;;;3.20;;
18818;SDS011;9537;45.594;9.294;2023-06-10T06:01:29;5.35;;;3.30;;
18818;SDS011;9537;45.594;9.294;2023-06-10T06:02:30;6.97;;;3.15;;
18818;SDS011;9537;45.594;9.294;2023-06-10T06:03:32;6.95;;;3.20;;
18818;SDS011;9537;45.594;9.294;2023-06-10T06:04:33;4.82;;;3.13;;
18818;SDS011;9537;45.594;9.294;2023-06-10T06:05:36;4.68;;;3.50;;
18818;SDS011;9537;45.594;9.294;2023-06-10T06:06:38;7.28;;;3.28;;
18818;SDS011;9537;45.594;9.294;2023-06-10T06:07:40;4.40;;;2.90;;
18818;SDS011;9537;45.594;9.294;2023-06-10T06:08:41;5.63;;;3.42;;
18818;SDS011;9537;45.594;9.294;2023-06-10T06:09:42;7.53;;;3.50;;
18818;SDS011;9537;45.594;9.294;2023-06-10T06:10:43;5.68;;;3.13;;
18818;SDS011;9537;45.594;9.294;2023-06-10T06:11:45;7.10;;;3.40;;
18818;SDS011;9537;45.594;9.294;2023-06-10T06:12:46;5.05;;;3.05;;
18818;SDS011;9537;45.594;9.294;2023-06-10T06:13:48;3.60;;;2.88;;
18818;SDS011;9537;45.594;9.294;2023-06-10T06:14:50;5.50;;;3.42;;
18818;SDS011;9537;45.594;9.294;2023-06-10T06:15:52;6.25;;;3.42;;
18818;SDS011;9537;45.594;9.294;2023-06-10T06:16:53;5.82;;;3.25;;
18818;SDS011;9537;45.594;9.294;2023-06-10T06:17:55;6.90;;;3.65;;
18818;SDS011;9537;45.594;9.294;2023-06-10T06:18:56;5.05;;;3.10;;